createdAt,value
2024-01-01T00:01:57.140Z,99633.31
2024-01-01T00:04:25.570Z,99625.91
2024-01-01T00:06:52.346Z,99639.59
2024-01-01T00:09:18.902Z,99639.59
2024-01-01T00:11:46.202Z,99614.09
2024-01-01T00:14:13.811Z,99626.59
2024-01-01T00:16:40.563Z,99638.78
2024-01-01T00:19:07.332Z,99626.44
2024-01-01T00:21:33.997Z,99638.09
2024-01-01T00:24:00.554Z,99637.41
2024-01-01T00:26:27.058Z,99643.97
2024-01-01T00:28:53.647Z,99631.78
2024-01-01T00:31:20.192Z,99636.16
2024-01-01T00:33:46.814Z,99625.75
2024-01-01T00:36:13.381Z,99643.47
2024-01-01T00:38:40.007Z,99645.09
2024-01-01T00:41:06.664Z,99661.41
2024-01-01T00:43:34.989Z,99645.66
2024-01-01T00:46:01.514Z,99648.38
2024-01-01T00:48:28.121Z,99616.88
2024-01-01T00:50:54.784Z,99625.53
2024-01-01T00:53:21.376Z,99631.84
2024-01-01T00:55:48.045Z,99621.13
2024-01-01T00:58:14.722Z,99627.97
2024-01-01T01:00:41.945Z,99619.22
2024-01-01T01:03:08.542Z,99626.19
2024-01-01T01:05:35.311Z,99628.91
2024-01-01T01:08:02.006Z,99623.88
2024-01-01T01:10:28.612Z,99614.41
2024-01-01T01:12:55.288Z,99606.34
2024-01-01T01:15:25.485Z,99612.50
2024-01-01T01:17:52.166Z,99619.34
2024-01-01T01:20:19.938Z,99608.94
2024-01-01T01:22:46.532Z,99601.00
2024-01-01T01:25:13.952Z,99582.31
2024-01-01T01:27:43.685Z,99599.88
2024-01-01T01:30:11.013Z,99603.59
2024-01-01T01:32:38.699Z,99602.22
2024-01-01T01:35:06.017Z,99607.53
2024-01-01T01:37:33.727Z,99605.91
2024-01-01T01:40:00.674Z,99603.84
2024-01-01T01:42:27.261Z,99608.66
2024-01-01T01:44:53.769Z,99615.34
2024-01-01T01:47:20.521Z,99623.16
2024-01-01T01:49:47.698Z,99621.78
2024-01-01T01:52:14.372Z,99604.94
2024-01-01T01:54:41.282Z,99641.69
2024-01-01T01:57:08.339Z,99641.72
2024-01-01T01:59:35.563Z,99647.28
2024-01-01T02:02:02.310Z,99648.91
2024-01-01T02:04:29.862Z,99663.13
2024-01-01T02:06:56.431Z,99653.75
2024-01-01T02:09:23.098Z,99671.50
2024-01-01T02:11:49.642Z,99671.28
2024-01-01T02:14:16.541Z,99645.69
2024-01-01T02:16:44.254Z,99645.22
2024-01-01T02:19:22.260Z,99656.19
2024-01-01T02:21:51.144Z,99664.47
2024-01-01T02:24:18.029Z,99651.72
2024-01-01T02:26:45.828Z,99649.38
2024-01-01T02:29:13.201Z,99625.41
2024-01-01T02:31:39.806Z,99639.09
2024-01-01T02:34:06.570Z,99633.94
2024-01-01T02:36:37.208Z,99646.28
2024-01-01T02:39:05.103Z,99648.78
2024-01-01T02:41:36.455Z,99652.44
2024-01-01T02:44:04.669Z,99645.50
2024-01-01T02:46:31.756Z,99650.44
2024-01-01T02:48:58.437Z,99653.97
2024-01-01T02:51:24.979Z,99661.97
2024-01-01T02:53:51.508Z,99654.91
2024-01-01T02:56:19.410Z,99653.00
2024-01-01T02:58:47.316Z,99646.84
2024-01-01T03:01:13.895Z,99653.00
2024-01-01T03:03:40.602Z,99649.59
2024-01-01T03:06:10.434Z,99653.72
2024-01-01T03:08:38.464Z,99656.66
2024-01-01T03:11:06.048Z,99648.75
2024-01-01T03:13:33.250Z,99644.63
2024-01-01T03:16:00.960Z,99645.06
2024-01-01T03:18:27.957Z,99645.78
2024-01-01T03:20:54.863Z,99642.47
2024-01-01T03:23:21.511Z,99655.56
2024-01-01T03:25:48.405Z,99663.22
2024-01-01T03:28:15.083Z,99659.16
2024-01-01T03:30:41.732Z,99646.44
2024-01-01T03:33:08.338Z,99655.41
2024-01-01T03:35:34.943Z,99641.25
2024-01-01T03:38:02.334Z,99655.97
2024-01-01T03:40:29.070Z,99645.25
2024-01-01T03:42:55.642Z,99662.44
2024-01-01T03:45:22.185Z,99653.31
2024-01-01T03:47:49.026Z,99659.84
2024-01-01T03:50:17.553Z,99660.84
2024-01-01T03:52:44.258Z,99636.16
2024-01-01T03:55:10.952Z,99661.97
2024-01-01T03:57:37.675Z,99671.97
2024-01-01T04:00:07.237Z,99660.38
2024-01-01T04:02:35.510Z,99660.00
2024-01-01T04:05:02.318Z,99664.00
2024-01-01T04:07:29.465Z,99673.19
2024-01-01T04:09:56.013Z,99658.75
2024-01-01T04:12:22.616Z,99650.94
2024-01-01T04:14:49.182Z,99672.44
2024-01-01T04:17:15.778Z,99657.53
2024-01-01T04:19:45.857Z,99653.28
2024-01-01T04:22:13.412Z,99660.28
2024-01-01T04:24:40.480Z,99645.38
2024-01-01T04:27:07.040Z,99662.88
2024-01-01T04:29:33.615Z,99648.66
2024-01-01T04:32:00.286Z,99658.38
2024-01-01T04:34:26.895Z,99653.75
2024-01-01T04:36:53.433Z,99650.19
2024-01-01T04:39:19.945Z,99672.00
2024-01-01T04:41:47.004Z,99641.19
2024-01-01T04:44:13.612Z,99662.81
2024-01-01T04:46:40.157Z,99662.72
2024-01-01T04:49:06.920Z,99664.03
2024-01-01T04:51:33.484Z,99648.94
2024-01-01T04:53:59.979Z,99665.22
2024-01-01T04:56:26.538Z,99680.13
2024-01-01T04:58:54.126Z,99684.44
2024-01-01T05:01:20.805Z,99678.09
2024-01-01T05:03:47.340Z,99682.66
2024-01-01T05:06:13.889Z,99669.22
2024-01-01T05:08:40.405Z,99664.38
2024-01-01T05:11:07.006Z,99673.69
2024-01-01T05:13:33.681Z,99681.13
2024-01-01T05:16:00.222Z,99671.38
2024-01-01T05:18:26.794Z,99677.91
2024-01-01T05:20:53.382Z,99672.16
2024-01-01T05:23:19.917Z,99690.38
2024-01-01T05:25:46.496Z,99682.44
2024-01-01T05:28:13.119Z,99687.78
2024-01-01T05:30:40.664Z,99699.69
2024-01-01T05:33:07.302Z,99703.56
2024-01-01T05:35:33.961Z,99697.44
2024-01-01T05:38:00.555Z,99707.69
2024-01-01T05:40:27.193Z,99692.63
2024-01-01T05:42:54.172Z,99688.81
2024-01-01T05:45:20.732Z,99700.97
2024-01-01T05:47:47.254Z,99708.22
2024-01-01T05:50:13.882Z,99710.97
2024-01-01T05:52:40.845Z,99699.31
2024-01-01T05:55:07.807Z,99712.09
2024-01-01T05:57:34.336Z,99720.69
2024-01-01T06:00:00.890Z,99722.59
2024-01-01T06:02:27.585Z,99708.81
2024-01-01T06:04:54.227Z,99733.94
2024-01-01T06:07:20.769Z,99731.03
2024-01-01T06:09:47.323Z,99719.41
2024-01-01T06:12:13.893Z,99729.34
2024-01-01T06:14:40.424Z,99739.06
2024-01-01T06:17:07.012Z,99743.69
2024-01-01T06:19:33.618Z,99754.22
2024-01-01T06:22:00.132Z,99741.13
2024-01-01T06:24:26.675Z,99749.19
2024-01-01T06:26:53.306Z,99749.66
2024-01-01T06:29:19.908Z,99759.22
2024-01-01T06:31:46.485Z,99774.00
2024-01-01T06:34:13.005Z,99759.59
2024-01-01T06:36:39.559Z,99766.34
2024-01-01T06:39:06.122Z,99775.31
2024-01-01T06:41:32.678Z,99779.09
2024-01-01T06:43:59.228Z,99777.44
2024-01-01T06:46:25.743Z,99778.97
2024-01-01T06:48:52.361Z,99775.31
2024-01-01T06:51:18.933Z,99790.91
2024-01-01T06:53:45.455Z,99788.44
2024-01-01T06:56:14.400Z,99793.63
2024-01-01T06:58:41.812Z,99796.34
2024-01-01T07:01:08.725Z,99783.38
2024-01-01T07:03:35.349Z,99791.97
2024-01-01T07:06:02.026Z,99823.03
2024-01-01T07:08:29.043Z,99819.59
2024-01-01T07:10:55.739Z,99824.59
2024-01-01T07:13:22.300Z,99818.19
2024-01-01T07:15:49.088Z,99843.81
2024-01-01T07:18:18.075Z,99824.59
2024-01-01T07:20:47.968Z,99859.25
2024-01-01T07:23:14.470Z,99826.81
2024-01-01T07:25:41.148Z,99840.28
2024-01-01T07:28:09.177Z,99851.34
2024-01-01T07:30:36.844Z,99853.97
2024-01-01T07:33:04.564Z,99852.06
2024-01-01T07:35:31.450Z,99858.19
2024-01-01T07:37:58.928Z,99875.31
2024-01-01T07:40:25.628Z,99875.44
2024-01-01T07:42:52.231Z,99867.88
2024-01-01T07:45:18.890Z,99874.22
2024-01-01T07:47:46.282Z,99879.56
2024-01-01T07:50:12.843Z,99869.88
2024-01-01T07:52:39.433Z,99891.81
2024-01-01T07:55:07.642Z,99888.97
2024-01-01T07:57:34.491Z,99887.09
2024-01-01T08:00:01.033Z,99892.41
2024-01-01T08:02:27.740Z,99882.13
2024-01-01T08:04:55.072Z,99890.94
2024-01-01T08:07:23.072Z,99878.22
2024-01-01T08:09:49.588Z,99888.59
2024-01-01T08:12:16.158Z,99915.59
2024-01-01T08:14:42.866Z,99897.94
2024-01-01T08:17:09.889Z,99921.38
2024-01-01T08:19:36.827Z,99905.81
2024-01-01T08:22:03.769Z,99908.53
2024-01-01T08:24:30.303Z,99907.09
2024-01-01T08:26:57.234Z,99909.59
2024-01-01T08:29:23.766Z,99928.22
2024-01-01T08:31:50.329Z,99919.75
2024-01-01T08:34:16.837Z,99919.41
2024-01-01T08:36:43.339Z,99917.03
2024-01-01T08:39:11.046Z,99921.72
2024-01-01T08:41:47.134Z,99936.75
2024-01-01T08:44:13.711Z,99923.28
2024-01-01T08:46:41.219Z,99924.13
2024-01-01T08:49:08.451Z,99919.75
2024-01-01T08:51:37.024Z,99933.09
2024-01-01T08:54:06.768Z,99926.25
2024-01-01T08:56:33.582Z,99934.28
2024-01-01T08:59:01.299Z,99945.88
2024-01-01T09:01:28.021Z,99932.19
2024-01-01T09:03:57.651Z,99948.38
2024-01-01T09:06:24.779Z,99940.56
2024-01-01T09:08:51.475Z,99936.94
2024-01-01T09:11:18.269Z,99931.84
2024-01-01T09:13:45.074Z,99960.88
2024-01-01T09:16:11.638Z,99967.00
2024-01-01T09:18:39.352Z,99954.03
2024-01-01T09:21:06.473Z,99954.50
2024-01-01T09:23:33.059Z,99970.69
2024-01-01T09:26:00.443Z,99968.91
2024-01-01T09:28:27.801Z,99960.41
2024-01-01T09:30:56.222Z,99963.72
2024-01-01T09:33:22.929Z,99982.72
2024-01-01T09:35:49.632Z,99981.28
2024-01-01T09:38:17.776Z,100009.63
2024-01-01T09:40:44.958Z,99997.47
2024-01-01T09:43:19.234Z,100000.91
2024-01-01T09:45:49.276Z,99992.25
2024-01-01T09:48:16.381Z,100016.34
2024-01-01T09:50:49.573Z,100007.03
2024-01-01T09:53:18.517Z,100013.31
2024-01-01T09:55:52.802Z,100018.25
2024-01-01T09:58:19.935Z,100022.16
2024-01-01T10:00:46.533Z,100003.63
2024-01-01T10:03:13.259Z,99993.91
2024-01-01T10:05:41.810Z,100023.00
2024-01-01T10:08:13.573Z,100036.34
2024-01-01T10:10:40.910Z,100030.22
2024-01-01T10:13:16.838Z,100037.44
2024-01-01T10:15:44.456Z,100024.22
2024-01-01T10:18:13.240Z,100037.81
2024-01-01T10:20:40.686Z,100034.38
2024-01-01T10:23:26.724Z,100028.47
2024-01-01T10:26:07.496Z,100031.56
2024-01-01T10:28:34.957Z,100036.00
2024-01-01T10:31:03.093Z,100035.31
2024-01-01T10:33:30.833Z,100047.16
2024-01-01T10:36:03.098Z,100047.06
2024-01-01T10:38:31.856Z,100031.59
2024-01-01T10:41:00.030Z,100044.47
2024-01-01T10:43:29.167Z,100040.38
2024-01-01T10:46:02.956Z,100053.81
2024-01-01T10:48:31.300Z,100059.47
2024-01-01T10:51:29.450Z,100070.63
2024-01-01T10:54:20.132Z,100051.47
2024-01-01T10:57:02.102Z,100055.72
2024-01-01T10:59:40.289Z,100061.63
2024-01-01T11:02:07.597Z,100057.84
2024-01-01T11:04:34.138Z,100079.81
2024-01-01T11:07:03.375Z,100073.56
2024-01-01T11:09:30.806Z,100080.63
2024-01-01T11:11:57.674Z,100086.78
2024-01-01T11:14:46.572Z,100069.16
2024-01-01T11:17:13.484Z,100082.50
2024-01-01T11:19:44.277Z,100075.63
2024-01-01T11:22:33.324Z,100077.50
2024-01-01T11:25:01.080Z,100085.28
2024-01-01T11:27:32.987Z,100077.16
2024-01-01T11:30:02.531Z,100079.31
2024-01-01T11:32:29.615Z,100096.34
2024-01-01T11:35:27.005Z,100088.53
2024-01-01T11:37:59.151Z,100070.81
2024-01-01T11:40:29.281Z,100082.25
2024-01-01T11:43:06.902Z,100083.81
2024-01-01T11:45:35.607Z,100081.31
2024-01-01T11:48:06.753Z,100080.00
2024-01-01T11:50:33.417Z,100087.81
2024-01-01T11:53:01.571Z,100101.31
2024-01-01T11:55:28.282Z,100080.00
2024-01-01T11:57:55.246Z,100106.06
2024-01-01T12:00:22.570Z,100087.84
2024-01-01T12:02:49.467Z,100098.25
2024-01-01T12:05:21.277Z,100105.09
2024-01-01T12:07:48.392Z,100089.16
2024-01-01T12:10:17.712Z,100089.75
2024-01-01T12:12:45.705Z,100077.00
2024-01-01T12:15:14.656Z,100089.31
2024-01-01T12:17:47.499Z,100082.66
2024-01-01T12:20:20.252Z,100091.19
2024-01-01T12:22:49.797Z,100074.53
2024-01-01T12:25:18.088Z,100071.91
2024-01-01T12:27:45.824Z,100081.03
2024-01-01T12:30:28.938Z,100064.34
2024-01-01T12:32:55.989Z,100069.91
2024-01-01T12:35:22.903Z,100088.47
2024-01-01T12:37:49.695Z,100068.50
2024-01-01T12:40:16.507Z,100083.28
2024-01-01T12:42:43.397Z,100080.91
2024-01-01T12:45:10.306Z,100076.56
2024-01-01T12:47:36.876Z,100088.00
2024-01-01T12:50:03.885Z,100087.66
2024-01-01T12:52:30.504Z,100088.50
2024-01-01T12:54:57.053Z,100082.44
2024-01-01T12:57:23.621Z,100079.50
2024-01-01T12:59:50.138Z,100091.88
2024-01-01T13:02:16.786Z,100089.91
2024-01-01T13:04:43.498Z,100093.09
2024-01-01T13:07:10.030Z,100093.09
2024-01-01T13:09:36.972Z,100106.47
2024-01-01T13:12:05.436Z,100101.84
2024-01-01T13:14:35.078Z,100098.53
2024-01-01T13:17:05.384Z,100100.91
2024-01-01T13:19:35.508Z,100114.00
2024-01-01T13:22:03.155Z,100116.41
2024-01-01T13:24:31.048Z,100111.06
2024-01-01T13:26:57.781Z,100116.50
2024-01-01T13:29:24.483Z,100116.25
2024-01-01T13:31:51.346Z,100115.44
2024-01-01T13:34:18.038Z,100114.00
2024-01-01T13:36:44.653Z,100114.16
2024-01-01T13:39:11.304Z,100129.03
2024-01-01T13:41:37.917Z,100122.41
2024-01-01T13:44:04.719Z,100125.00
2024-01-01T13:46:31.224Z,100128.91
2024-01-01T13:48:57.806Z,100132.97
2024-01-01T13:51:24.388Z,100144.88
2024-01-01T13:53:51.954Z,100146.78
2024-01-01T13:56:19.903Z,100151.03
2024-01-01T13:58:47.221Z,100148.06
2024-01-01T14:01:14.186Z,100134.22
2024-01-01T14:03:41.983Z,100139.06
2024-01-01T14:06:08.908Z,100134.22
2024-01-01T14:08:35.636Z,100140.00
2024-01-01T14:11:05.283Z,100149.09
2024-01-01T14:13:32.145Z,100147.56
2024-01-01T14:15:59.593Z,100145.31
2024-01-01T14:18:26.617Z,100155.28
2024-01-01T14:20:53.297Z,100153.66
2024-01-01T14:23:19.965Z,100162.25
2024-01-01T14:25:47.938Z,100149.97
2024-01-01T14:28:14.658Z,100170.78
2024-01-01T14:30:41.329Z,100158.84
2024-01-01T14:33:08.322Z,100170.66
2024-01-01T14:35:35.666Z,100173.50
2024-01-01T14:38:02.351Z,100179.03
2024-01-01T14:40:28.978Z,100173.47
2024-01-01T14:42:55.576Z,100186.34
2024-01-01T14:45:22.115Z,100184.69
2024-01-01T14:47:48.936Z,100179.81
2024-01-01T14:50:15.757Z,100176.97
2024-01-01T14:52:43.526Z,100178.75
2024-01-01T14:55:10.420Z,100180.84
2024-01-01T14:57:37.072Z,100193.50
2024-01-01T15:00:06.193Z,100189.69
2024-01-01T15:02:35.259Z,100190.31
2024-01-01T15:05:02.592Z,100200.69
2024-01-01T15:07:29.283Z,100197.59
2024-01-01T15:09:55.805Z,100192.03
2024-01-01T15:12:22.436Z,100197.84
2024-01-01T15:14:49.020Z,100206.81
2024-01-01T15:17:15.708Z,100207.97
2024-01-01T15:19:42.537Z,100212.78
2024-01-01T15:22:10.183Z,100223.41
2024-01-01T15:24:36.811Z,100220.47
2024-01-01T15:27:05.592Z,100220.06
2024-01-01T15:29:32.618Z,100223.28
2024-01-01T15:31:59.612Z,100217.69
2024-01-01T15:34:26.432Z,100222.66
2024-01-01T15:36:53.158Z,100230.47
2024-01-01T15:39:19.891Z,100228.34
2024-01-01T15:41:46.661Z,100237.66
2024-01-01T15:44:13.344Z,100247.31
2024-01-01T15:46:39.945Z,100244.63
2024-01-01T15:49:06.695Z,100251.59
2024-01-01T15:51:39.227Z,100247.22
2024-01-01T15:54:06.968Z,100248.97
2024-01-01T15:56:33.744Z,100248.97
2024-01-01T15:59:00.946Z,100249.94
2024-01-01T16:01:27.868Z,100272.50
2024-01-01T16:03:55.807Z,100255.97
2024-01-01T16:06:22.985Z,100257.63
2024-01-01T16:08:49.626Z,100241.66
2024-01-01T16:11:16.429Z,100252.19
2024-01-01T16:13:43.259Z,100247.31
2024-01-01T16:16:09.866Z,100263.44
2024-01-01T16:18:36.590Z,100261.88
2024-01-01T16:21:03.292Z,100265.31
2024-01-01T16:23:30.011Z,100274.88
2024-01-01T16:25:56.739Z,100255.97
2024-01-01T16:28:23.330Z,100262.09
2024-01-01T16:30:50.031Z,100259.50
2024-01-01T16:33:16.980Z,100249.94
2024-01-01T16:35:43.664Z,100257.94
2024-01-01T16:38:10.385Z,100249.53
2024-01-01T16:40:37.005Z,100263.25
2024-01-01T16:43:04.189Z,100265.84
2024-01-01T16:45:30.892Z,100256.16
2024-01-01T16:47:57.558Z,100265.75
2024-01-01T16:50:24.992Z,100267.50
2024-01-01T16:52:51.651Z,100274.34
2024-01-01T16:55:18.270Z,100268.25
2024-01-01T16:57:44.952Z,100281.22
2024-01-01T17:00:12.264Z,100279.44
2024-01-01T17:02:38.955Z,100276.75
2024-01-01T17:05:06.409Z,100272.16
2024-01-01T17:07:33.063Z,100279.03
2024-01-01T17:09:59.741Z,100263.53
2024-01-01T17:12:26.297Z,100265.31
2024-01-01T17:14:52.873Z,100278.91
2024-01-01T17:17:19.474Z,100271.84
2024-01-01T17:19:46.168Z,100269.34
2024-01-01T17:22:12.819Z,100276.09
2024-01-01T17:24:39.449Z,100277.03
2024-01-01T17:27:06.046Z,100278.56
2024-01-01T17:29:32.790Z,100274.91
2024-01-01T17:31:59.515Z,100280.25
2024-01-01T17:34:26.059Z,100284.28
2024-01-01T17:36:52.625Z,100277.53
2024-01-01T17:39:19.708Z,100279.91
2024-01-01T17:41:46.220Z,100282.28
2024-01-01T17:44:12.872Z,100279.06
2024-01-01T17:46:39.473Z,100277.31
2024-01-01T17:49:06.155Z,100288.03
2024-01-01T17:51:33.003Z,100285.13
2024-01-01T17:53:59.691Z,100271.63
2024-01-01T17:56:27.090Z,100292.47
2024-01-01T17:58:54.879Z,100282.72
2024-01-01T18:01:21.605Z,100295.72
2024-01-01T18:03:48.175Z,100289.84
2024-01-01T18:06:15.032Z,100288.19
2024-01-01T18:08:41.741Z,100287.38
2024-01-01T18:11:08.505Z,100278.66
2024-01-01T18:13:35.547Z,100277.94
2024-01-01T18:16:02.494Z,100294.09
2024-01-01T18:18:29.831Z,100280.31
2024-01-01T18:20:56.581Z,100290.59
2024-01-01T18:23:23.327Z,100287.16
2024-01-01T18:25:49.989Z,100266.94
2024-01-01T18:28:16.527Z,100279.69
2024-01-01T18:30:43.827Z,100293.41
2024-01-01T18:33:10.739Z,100279.69
2024-01-01T18:35:37.506Z,100292.69
2024-01-01T18:38:04.495Z,100277.09
2024-01-01T18:40:31.258Z,100281.44
2024-01-01T18:42:57.960Z,100289.38
2024-01-01T18:45:24.693Z,100277.41
2024-01-01T18:47:51.720Z,100284.56
2024-01-01T18:50:21.330Z,100292.97
2024-01-01T18:52:48.100Z,100279.59
2024-01-01T18:55:14.731Z,100290.69
2024-01-01T18:57:41.392Z,100275.34
2024-01-01T19:00:08.876Z,100244.31
2024-01-01T19:02:35.561Z,100294.00
2024-01-01T19:05:02.487Z,100267.41
2024-01-01T19:07:29.257Z,100261.25
2024-01-01T19:09:56.875Z,100277.84
2024-01-01T19:12:23.608Z,100270.28
2024-01-01T19:14:50.154Z,100253.38
2024-01-01T19:17:16.699Z,100267.78
2024-01-01T19:19:43.239Z,100259.97
2024-01-01T19:22:09.917Z,100258.47
2024-01-01T19:24:36.492Z,100256.28
2024-01-01T19:27:03.134Z,100255.69
2024-01-01T19:29:29.680Z,100257.94
2024-01-01T19:31:56.330Z,100253.81
2024-01-01T19:34:23.049Z,100255.78
2024-01-01T19:36:49.872Z,100253.31
2024-01-01T19:39:16.582Z,100257.69
2024-01-01T19:41:48.527Z,100253.41
2024-01-01T19:44:16.253Z,100248.47
2024-01-01T19:46:42.964Z,100255.31
2024-01-01T19:49:10.765Z,100249.25
2024-01-01T19:51:40.819Z,100248.56
2024-01-01T19:54:07.818Z,100223.13
2024-01-01T19:56:34.442Z,100237.13
2024-01-01T19:59:01.445Z,100226.22
2024-01-01T20:01:28.080Z,100226.91
2024-01-01T20:03:55.469Z,100226.91
2024-01-01T20:06:22.262Z,100217.59
2024-01-01T20:08:49.069Z,100222.56
2024-01-01T20:11:23.704Z,100213.22
2024-01-01T20:13:51.026Z,100210.63
2024-01-01T20:16:28.552Z,100200.22
2024-01-01T20:18:55.809Z,100196.59
2024-01-01T20:21:24.495Z,100181.94
2024-01-01T20:23:51.653Z,100180.03
2024-01-01T20:26:24.663Z,100176.50
2024-01-01T20:28:55.589Z,100163.03
2024-01-01T20:31:23.339Z,100172.84
2024-01-01T20:33:57.014Z,100153.47
2024-01-01T20:36:25.586Z,100159.03
2024-01-01T20:38:56.559Z,100161.53
2024-01-01T20:41:23.278Z,100158.81
2024-01-01T20:43:53.915Z,100145.13
2024-01-01T20:46:20.913Z,100139.06
2024-01-01T20:48:48.120Z,100141.34
2024-01-01T20:51:14.814Z,100143.22
2024-01-01T20:53:41.899Z,100131.03
2024-01-01T20:56:11.885Z,100129.88
2024-01-01T20:58:39.584Z,100128.00
2024-01-01T21:01:06.647Z,100113.09
2024-01-01T21:03:37.188Z,100134.84
2024-01-01T21:06:08.353Z,100139.00
2024-01-01T21:08:35.317Z,100134.50
2024-01-01T21:11:02.309Z,100137.94
2024-01-01T21:13:29.860Z,100118.81
2024-01-01T21:15:58.576Z,100104.97
2024-01-01T21:18:25.477Z,100110.16
2024-01-01T21:20:52.308Z,100107.81
2024-01-01T21:23:19.120Z,100110.91
2024-01-01T21:25:45.821Z,100106.50
2024-01-01T21:28:12.479Z,100111.97
2024-01-01T21:30:39.198Z,100101.66
2024-01-01T21:33:06.414Z,100091.16
2024-01-01T21:35:33.207Z,100103.31
2024-01-01T21:38:01.910Z,100096.97
2024-01-01T21:40:28.503Z,100079.81
2024-01-01T21:42:57.942Z,100090.81
2024-01-01T21:45:25.200Z,100088.53
2024-01-01T21:47:52.050Z,100093.75
2024-01-01T21:50:19.985Z,100089.72
2024-01-01T21:52:46.589Z,100057.09
2024-01-01T21:55:16.539Z,100092.81
2024-01-01T21:57:45.689Z,100082.06
2024-01-01T22:00:14.385Z,100073.31
2024-01-01T22:02:42.840Z,100069.16
2024-01-01T22:05:10.632Z,100070.72
2024-01-01T22:07:37.847Z,100061.72
2024-01-01T22:10:04.706Z,100073.19
2024-01-01T22:12:31.196Z,100064.47
2024-01-01T22:14:57.759Z,100062.69
2024-01-01T22:17:24.455Z,100058.78
2024-01-01T22:19:51.096Z,100051.94
2024-01-01T22:22:17.670Z,100043.44
2024-01-01T22:24:44.211Z,100043.31
2024-01-01T22:27:10.871Z,100034.69
2024-01-01T22:29:37.468Z,100013.41
2024-01-01T22:32:04.668Z,100002.44
2024-01-01T22:34:31.342Z,99988.13
2024-01-01T22:36:57.861Z,100004.19
2024-01-01T22:39:24.411Z,99994.16
2024-01-01T22:41:51.067Z,99991.34
2024-01-01T22:44:18.530Z,99982.09
2024-01-01T22:46:45.109Z,99971.59
2024-01-01T22:49:11.873Z,99966.41
2024-01-01T22:51:38.669Z,99961.06
2024-01-01T22:54:05.330Z,99952.09
2024-01-01T22:56:32.086Z,99951.16
2024-01-01T22:58:58.793Z,99950.09
2024-01-01T23:01:25.513Z,99950.66
2024-01-01T23:03:53.686Z,99933.06
2024-01-01T23:06:21.134Z,99927.63
2024-01-01T23:08:48.011Z,99919.72
2024-01-01T23:11:14.651Z,99918.06
2024-01-01T23:13:41.667Z,99914.41
2024-01-01T23:16:08.625Z,99895.63
2024-01-01T23:18:35.558Z,99899.50
2024-01-01T23:21:03.512Z,99896.91
2024-01-01T23:23:31.015Z,99891.03
2024-01-01T23:26:00.477Z,99866.78
2024-01-01T23:28:27.023Z,99880.47
2024-01-01T23:30:53.672Z,99874.59
2024-01-01T23:33:20.547Z,99874.00
2024-01-01T23:35:49.142Z,99865.25
2024-01-01T23:38:17.687Z,99858.25
2024-01-01T23:40:44.251Z,99852.25
2024-01-01T23:43:10.857Z,99850.34
2024-01-01T23:45:37.528Z,99844.47
2024-01-01T23:48:08.408Z,99821.91
2024-01-01T23:50:35.765Z,99837.25
2024-01-01T23:53:02.917Z,99809.94
2024-01-01T23:55:29.655Z,99827.53
2024-01-01T23:57:56.234Z,99821.50
